Kenansville, NC (28349)

7:31 AM EST on December 07, 2016 (GMT -0500)
Duplin Country Club Estates | | Change Station

Elev 118 ft 34.99 °N, 78.01 °W | Updated 27 seconds ago

Overcast
Overcast
44.8 °F
Feels Like 45 °F
N
0.0
Wind Variable Wind from WNW
Gusts 0.0 mph

Today
High -- | Low -- °F
--% Chance of Precip.
Yesterday
High -- | Low -- °F
Precip. -- in
Pressure 30.02 in
Visibility 10.0 miles
Clouds Overcast 900 ft
Windchill 45 °F
Dew Point 44 °F
Humidity 97%
Rainfall 0.00 in
Snow Depth Not available.
7:06 AM 5:00 PM
First Quarter, 52% visible
METAR KDPL 071205Z AUTO 31004KT 10SM OVC009 07/06 A3002 RMK AO2
Pressure 30.02 in
Visibility 10.0 miles
Clouds Overcast 900 ft
Windchill 45 °F
Dew Point 44 °F
Humidity 97%
Rainfall 0.00 in
Snow Depth Not available.
7:06 AM 5:00 PM
First Quarter, 52% visible
METAR KDPL 071205Z AUTO 31004KT 10SM OVC009 07/06 A3002 RMK AO2

10-Day Weather Forecast

Almanac

Astronomy

Dec. 07, 2016 Rise Set
Actual Time
Civil Twilight
Nautical Twilight
Astronomical Twilight
Moon
Length of Visible Light
Length of Day
Tomorrow will be .
, % of the Moon is Illuminated

Today's Extremes

State Highs State Lows

Community

WunderPhotos

Upload Photos

1,956,111 photos uploaded!

WunderBlog® & News

Nearby

Air Quality

  Air Quality AQ Index Pollutant
Not available.

Snow Depth

Station Depth Elevation

Earthquake Activity

City Distance Mag. Time & Date
Minimum magnitude displayed is 2.5.

Coastal Water Temperatures

Place Temperature

Stations

Nearby Weather Stations

Station Location Temp. Windchill Dew Point Humidity Wind Precip. Elev Updated Type
                   

Watches & Warnings

There are currently no watches in effect.